sensor_id;sensor_type;location;lat;lon;timestamp;P1;durP1;ratioP1;P2;durP2;ratioP2
6121;SDS011;3091;51.506;7.672;2024-01-06T00:01:59;85.30;;;80.70;;
6121;SDS011;3091;51.506;7.672;2024-01-06T00:04:27;89.73;;;85.23;;
6121;SDS011;3091;51.506;7.672;2024-01-06T00:06:53;91.23;;;86.40;;
6121;SDS011;3091;51.506;7.672;2024-01-06T00:09:19;95.97;;;91.27;;
6121;SDS011;3091;51.506;7.672;2024-01-06T00:11:45;91.57;;;86.90;;
6121;SDS011;3091;51.506;7.672;2024-01-06T00:14:11;91.73;;;86.93;;
6121;SDS011;3091;51.506;7.672;2024-01-06T00:16:37;92.73;;;88.13;;
6121;SDS011;3091;51.506;7.672;2024-01-06T00:19:03;90.77;;;86.17;;
6121;SDS011;3091;51.506;7.672;2024-01-06T00:21:29;90.80;;;86.10;;
6121;SDS011;3091;51.506;7.672;2024-01-06T00:23:55;91.00;;;86.40;;
6121;SDS011;3091;51.506;7.672;2024-01-06T00:26:22;86.70;;;82.20;;
6121;SDS011;3091;51.506;7.672;2024-01-06T00:28:49;83.77;;;79.40;;
6121;SDS011;3091;51.506;7.672;2024-01-06T00:31:15;80.07;;;75.80;;
6121;SDS011;3091;51.506;7.672;2024-01-06T00:33:47;81.10;;;76.70;;
6121;SDS011;3091;51.506;7.672;2024-01-06T00:36:13;81.80;;;77.50;;
6121;SDS011;3091;51.506;7.672;2024-01-06T00:38:39;81.77;;;77.30;;
6121;SDS011;3091;51.506;7.672;2024-01-06T00:41:05;81.77;;;77.47;;
6121;SDS011;3091;51.506;7.672;2024-01-06T00:43:31;91.90;;;86.93;;
6121;SDS011;3091;51.506;7.672;2024-01-06T00:45:57;84.90;;;80.50;;
6121;SDS011;3091;51.506;7.672;2024-01-06T00:48:23;86.93;;;82.53;;
6121;SDS011;3091;51.506;7.672;2024-01-06T00:50:49;91.40;;;86.80;;
6121;SDS011;3091;51.506;7.672;2024-01-06T00:53:15;98.80;;;93.90;;
6121;SDS011;3091;51.506;7.672;2024-01-06T00:55:41;95.77;;;90.97;;
6121;SDS011;3091;51.506;7.672;2024-01-06T00:58:07;107.87;;;102.57;;
6121;SDS011;3091;51.506;7.672;2024-01-06T01:00:33;105.80;;;100.63;;
6121;SDS011;3091;51.506;7.672;2024-01-06T01:02:59;95.73;;;90.83;;
6121;SDS011;3091;51.506;7.672;2024-01-06T01:05:25;100.27;;;95.20;;
6121;SDS011;3091;51.506;7.672;2024-01-06T01:07:51;103.60;;;98.50;;
6121;SDS011;3091;51.506;7.672;2024-01-06T01:10:17;110.23;;;104.93;;
6121;SDS011;3091;51.506;7.672;2024-01-06T01:12:43;106.20;;;101.10;;
6121;SDS011;3091;51.506;7.672;2024-01-06T01:15:09;110.80;;;105.50;;
6121;SDS011;3091;51.506;7.672;2024-01-06T01:17:35;118.40;;;112.80;;
6121;SDS011;3091;51.506;7.672;2024-01-06T01:20:02;109.60;;;104.30;;
6121;SDS011;3091;51.506;7.672;2024-01-06T01:22:28;111.27;;;105.77;;
6121;SDS011;3091;51.506;7.672;2024-01-06T01:24:54;120.60;;;114.90;;
6121;SDS011;3091;51.506;7.672;2024-01-06T01:27:20;120.77;;;115.07;;
6121;SDS011;3091;51.506;7.672;2024-01-06T01:29:46;115.53;;;109.93;;
6121;SDS011;3091;51.506;7.672;2024-01-06T01:32:15;117.77;;;112.07;;
6121;SDS011;3091;51.506;7.672;2024-01-06T01:34:41;121.80;;;115.80;;
6121;SDS011;3091;51.506;7.672;2024-01-06T01:37:07;119.63;;;113.93;;
6121;SDS011;3091;51.506;7.672;2024-01-06T01:39:33;121.73;;;115.83;;
6121;SDS011;3091;51.506;7.672;2024-01-06T01:41:59;122.57;;;116.77;;
6121;SDS011;3091;51.506;7.672;2024-01-06T01:44:25;114.60;;;108.90;;
6121;SDS011;3091;51.506;7.672;2024-01-06T01:46:53;117.33;;;111.50;;
6121;SDS011;3091;51.506;7.672;2024-01-06T01:49:19;108.90;;;103.50;;
6121;SDS011;3091;51.506;7.672;2024-01-06T01:51:45;112.20;;;106.60;;
6121;SDS011;3091;51.506;7.672;2024-01-06T01:54:12;104.10;;;98.90;;
6121;SDS011;3091;51.506;7.672;2024-01-06T01:56:38;106.90;;;101.50;;
6121;SDS011;3091;51.506;7.672;2024-01-06T01:59:09;112.10;;;106.60;;
6121;SDS011;3091;51.506;7.672;2024-01-06T02:01:36;110.43;;;104.83;;
6121;SDS011;3091;51.506;7.672;2024-01-06T02:04:02;105.23;;;99.93;;
6121;SDS011;3091;51.506;7.672;2024-01-06T02:06:28;107.97;;;102.57;;
6121;SDS011;3091;51.506;7.672;2024-01-06T02:08:57;110.17;;;104.67;;
6121;SDS011;3091;51.506;7.672;2024-01-06T02:11:23;111.10;;;105.70;;
6121;SDS011;3091;51.506;7.672;2024-01-06T02:13:49;108.80;;;103.37;;
6121;SDS011;3091;51.506;7.672;2024-01-06T02:16:15;109.87;;;104.37;;
6121;SDS011;3091;51.506;7.672;2024-01-06T02:18:41;105.20;;;99.87;;
6121;SDS011;3091;51.506;7.672;2024-01-06T02:21:07;110.70;;;105.23;;
6121;SDS011;3091;51.506;7.672;2024-01-06T02:23:34;112.80;;;107.10;;
6121;SDS011;3091;51.506;7.672;2024-01-06T02:26:01;104.90;;;99.70;;
6121;SDS011;3091;51.506;7.672;2024-01-06T02:28:27;86.30;;;81.70;;
6121;SDS011;3091;51.506;7.672;2024-01-06T02:30:53;84.03;;;79.53;;
6121;SDS011;3091;51.506;7.672;2024-01-06T02:33:19;81.03;;;76.63;;
6121;SDS011;3091;51.506;7.672;2024-01-06T02:35:45;90.10;;;85.40;;
6121;SDS011;3091;51.506;7.672;2024-01-06T02:38:11;85.67;;;81.07;;
6121;SDS011;3091;51.506;7.672;2024-01-06T02:40:38;80.60;;;76.10;;
6121;SDS011;3091;51.506;7.672;2024-01-06T02:43:04;78.07;;;73.73;;
6121;SDS011;3091;51.506;7.672;2024-01-06T02:45:30;76.70;;;72.50;;
6121;SDS011;3091;51.506;7.672;2024-01-06T02:47:56;78.73;;;74.40;;
6121;SDS011;3091;51.506;7.672;2024-01-06T02:50:22;74.63;;;70.53;;
6121;SDS011;3091;51.506;7.672;2024-01-06T02:52:48;68.90;;;65.00;;
6121;SDS011;3091;51.506;7.672;2024-01-06T02:55:14;72.67;;;68.57;;
6121;SDS011;3091;51.506;7.672;2024-01-06T02:57:40;70.03;;;65.80;;
6121;SDS011;3091;51.506;7.672;2024-01-06T03:00:07;67.40;;;63.50;;
6121;SDS011;3091;51.506;7.672;2024-01-06T03:02:33;67.00;;;63.13;;
6121;SDS011;3091;51.506;7.672;2024-01-06T03:05:00;67.57;;;63.67;;
6121;SDS011;3091;51.506;7.672;2024-01-06T03:07:26;65.97;;;62.07;;
6121;SDS011;3091;51.506;7.672;2024-01-06T03:09:52;69.17;;;65.03;;
6121;SDS011;3091;51.506;7.672;2024-01-06T03:12:18;66.50;;;62.63;;
6121;SDS011;3091;51.506;7.672;2024-01-06T03:14:44;63.70;;;59.90;;
6121;SDS011;3091;51.506;7.672;2024-01-06T03:17:11;65.10;;;61.30;;
6121;SDS011;3091;51.506;7.672;2024-01-06T03:19:37;65.13;;;61.33;;
6121;SDS011;3091;51.506;7.672;2024-01-06T03:22:03;68.10;;;64.10;;
6121;SDS011;3091;51.506;7.672;2024-01-06T03:24:29;72.93;;;68.43;;
6121;SDS011;3091;51.506;7.672;2024-01-06T03:26:56;68.07;;;64.07;;
6121;SDS011;3091;51.506;7.672;2024-01-06T03:29:22;72.57;;;68.47;;
6121;SDS011;3091;51.506;7.672;2024-01-06T03:31:48;68.47;;;64.47;;
6121;SDS011;3091;51.506;7.672;2024-01-06T03:34:14;71.40;;;67.30;;
6121;SDS011;3091;51.506;7.672;2024-01-06T03:36:40;71.47;;;67.40;;
6121;SDS011;3091;51.506;7.672;2024-01-06T03:39:06;73.00;;;68.90;;
6121;SDS011;3091;51.506;7.672;2024-01-06T03:41:33;67.00;;;63.00;;
6121;SDS011;3091;51.506;7.672;2024-01-06T03:43:59;69.87;;;65.80;;
6121;SDS011;3091;51.506;7.672;2024-01-06T03:46:25;81.10;;;76.63;;
6121;SDS011;3091;51.506;7.672;2024-01-06T03:48:51;87.93;;;83.10;;
6121;SDS011;3091;51.506;7.672;2024-01-06T03:51:17;86.33;;;81.63;;
6121;SDS011;3091;51.506;7.672;2024-01-06T03:53:43;103.60;;;98.30;;
6121;SDS011;3091;51.506;7.672;2024-01-06T03:56:09;104.20;;;98.90;;
6121;SDS011;3091;51.506;7.672;2024-01-06T03:58:35;101.33;;;96.13;;
6121;SDS011;3091;51.506;7.672;2024-01-06T04:01:01;107.07;;;101.67;;
6121;SDS011;3091;51.506;7.672;2024-01-06T04:03:27;95.60;;;90.60;;
6121;SDS011;3091;51.506;7.672;2024-01-06T04:05:53;102.07;;;96.87;;
6121;SDS011;3091;51.506;7.672;2024-01-06T04:08:19;107.60;;;102.20;;
6121;SDS011;3091;51.506;7.672;2024-01-06T04:10:45;100.33;;;95.13;;
6121;SDS011;3091;51.506;7.672;2024-01-06T04:13:11;109.33;;;103.90;;
6121;SDS011;3091;51.506;7.672;2024-01-06T04:15:38;105.67;;;100.03;;
6121;SDS011;3091;51.506;7.672;2024-01-06T04:18:04;101.03;;;95.83;;
6121;SDS011;3091;51.506;7.672;2024-01-06T04:20:33;105.13;;;99.57;;
6121;SDS011;3091;51.506;7.672;2024-01-06T04:22:59;104.77;;;99.43;;
6121;SDS011;3091;51.506;7.672;2024-01-06T04:25:25;104.23;;;98.83;;
6121;SDS011;3091;51.506;7.672;2024-01-06T04:27:51;100.87;;;95.33;;
6121;SDS011;3091;51.506;7.672;2024-01-06T04:30:17;100.40;;;95.30;;
6121;SDS011;3091;51.506;7.672;2024-01-06T04:32:44;95.53;;;90.53;;
6121;SDS011;3091;51.506;7.672;2024-01-06T04:35:13;105.00;;;99.70;;
6121;SDS011;3091;51.506;7.672;2024-01-06T04:37:39;96.80;;;91.80;;
6121;SDS011;3091;51.506;7.672;2024-01-06T04:40:05;93.37;;;87.87;;
6121;SDS011;3091;51.506;7.672;2024-01-06T04:42:32;90.47;;;85.67;;
6121;SDS011;3091;51.506;7.672;2024-01-06T04:44:58;90.43;;;85.63;;
6121;SDS011;3091;51.506;7.672;2024-01-06T04:47:27;91.90;;;86.83;;
6121;SDS011;3091;51.506;7.672;2024-01-06T04:49:55;90.83;;;85.97;;
6121;SDS011;3091;51.506;7.672;2024-01-06T04:52:21;90.50;;;85.70;;
6121;SDS011;3091;51.506;7.672;2024-01-06T04:54:50;91.07;;;86.27;;
6121;SDS011;3091;51.506;7.672;2024-01-06T04:57:16;91.07;;;86.27;;
6121;SDS011;3091;51.506;7.672;2024-01-06T04:59:42;90.67;;;85.90;;
6121;SDS011;3091;51.506;7.672;2024-01-06T05:02:08;92.97;;;88.10;;
6121;SDS011;3091;51.506;7.672;2024-01-06T05:04:34;92.03;;;87.23;;
6121;SDS011;3091;51.506;7.672;2024-01-06T05:07:00;86.93;;;82.23;;
6121;SDS011;3091;51.506;7.672;2024-01-06T05:09:26;91.27;;;86.47;;
6121;SDS011;3091;51.506;7.672;2024-01-06T05:11:52;95.27;;;90.07;;
6121;SDS011;3091;51.506;7.672;2024-01-06T05:14:18;96.30;;;91.40;;
6121;SDS011;3091;51.506;7.672;2024-01-06T05:16:44;96.67;;;91.23;;
6121;SDS011;3091;51.506;7.672;2024-01-06T05:19:10;94.03;;;89.13;;
6121;SDS011;3091;51.506;7.672;2024-01-06T05:21:39;90.20;;;85.50;;
6121;SDS011;3091;51.506;7.672;2024-01-06T05:24:05;91.87;;;87.07;;
6121;SDS011;3091;51.506;7.672;2024-01-06T05:26:31;91.27;;;86.47;;
6121;SDS011;3091;51.506;7.672;2024-01-06T05:28:57;90.17;;;85.37;;
6121;SDS011;3091;51.506;7.672;2024-01-06T05:31:23;92.47;;;87.57;;
6121;SDS011;3091;51.506;7.672;2024-01-06T05:33:49;87.70;;;83.00;;
6121;SDS011;3091;51.506;7.672;2024-01-06T05:36:18;92.00;;;87.10;;
6121;SDS011;3091;51.506;7.672;2024-01-06T05:38:45;92.73;;;87.87;;
6121;SDS011;3091;51.506;7.672;2024-01-06T05:41:11;93.80;;;88.70;;
6121;SDS011;3091;51.506;7.672;2024-01-06T05:43:37;92.60;;;87.80;;
6121;SDS011;3091;51.506;7.672;2024-01-06T05:46:03;93.10;;;88.30;;
6121;SDS011;3091;51.506;7.672;2024-01-06T05:48:29;95.87;;;90.67;;
6121;SDS011;3091;51.506;7.672;2024-01-06T05:50:55;94.10;;;89.30;;
6121;SDS011;3091;51.506;7.672;2024-01-06T05:53:21;88.33;;;83.63;;
6121;SDS011;3091;51.506;7.672;2024-01-06T05:55:50;95.20;;;89.90;;
6121;SDS011;3091;51.506;7.672;2024-01-06T05:58:16;91.40;;;86.70;;
6121;SDS011;3091;51.506;7.672;2024-01-06T06:00:42;89.67;;;84.97;;
6121;SDS011;3091;51.506;7.672;2024-01-06T06:03:11;91.20;;;86.50;;
6121;SDS011;3091;51.506;7.672;2024-01-06T06:05:37;86.93;;;82.33;;
6121;SDS011;3091;51.506;7.672;2024-01-06T06:08:03;91.10;;;86.40;;
6121;SDS011;3091;51.506;7.672;2024-01-06T06:10:29;95.17;;;90.13;;
6121;SDS011;3091;51.506;7.672;2024-01-06T06:13:06;91.00;;;86.30;;
6121;SDS011;3091;51.506;7.672;2024-01-06T06:15:34;92.47;;;87.77;;
6121;SDS011;3091;51.506;7.672;2024-01-06T06:18:00;84.97;;;80.43;;
6121;SDS011;3091;51.506;7.672;2024-01-06T06:20:26;86.87;;;82.27;;
6121;SDS011;3091;51.506;7.672;2024-01-06T06:22:55;87.63;;;83.03;;
6121;SDS011;3091;51.506;7.672;2024-01-06T06:25:21;89.90;;;85.20;;
6121;SDS011;3091;51.506;7.672;2024-01-06T06:27:47;90.53;;;85.93;;
6121;SDS011;3091;51.506;7.672;2024-01-06T06:30:13;88.60;;;83.93;;
6121;SDS011;3091;51.506;7.672;2024-01-06T06:32:39;90.33;;;85.73;;
6121;SDS011;3091;51.506;7.672;2024-01-06T06:35:05;84.17;;;79.70;;
6121;SDS011;3091;51.506;7.672;2024-01-06T06:37:32;85.30;;;80.80;;
6121;SDS011;3091;51.506;7.672;2024-01-06T06:39:58;83.57;;;79.07;;
6121;SDS011;3091;51.506;7.672;2024-01-06T06:42:23;79.43;;;75.13;;
6121;SDS011;3091;51.506;7.672;2024-01-06T06:44:51;79.50;;;75.20;;
6121;SDS011;3091;51.506;7.672;2024-01-06T06:47:17;81.57;;;77.20;;
6121;SDS011;3091;51.506;7.672;2024-01-06T06:49:44;84.50;;;80.10;;
6121;SDS011;3091;51.506;7.672;2024-01-06T06:52:10;86.40;;;81.80;;
6121;SDS011;3091;51.506;7.672;2024-01-06T06:54:37;82.20;;;77.87;;
6121;SDS011;3091;51.506;7.672;2024-01-06T06:57:03;81.77;;;77.37;;
6121;SDS011;3091;51.506;7.672;2024-01-06T06:59:29;83.50;;;79.10;;
6121;SDS011;3091;51.506;7.672;2024-01-06T07:01:55;80.20;;;75.57;;
6121;SDS011;3091;51.506;7.672;2024-01-06T07:04:21;81.10;;;76.80;;
6121;SDS011;3091;51.506;7.672;2024-01-06T07:06:48;79.47;;;74.20;;
6121;SDS011;3091;51.506;7.672;2024-01-06T07:09:14;78.00;;;73.80;;
6121;SDS011;3091;51.506;7.672;2024-01-06T07:11:40;75.07;;;70.87;;
6121;SDS011;3091;51.506;7.672;2024-01-06T07:14:06;69.50;;;65.50;;
6121;SDS011;3091;51.506;7.672;2024-01-06T07:16:32;75.17;;;71.07;;
6121;SDS011;3091;51.506;7.672;2024-01-06T07:18:58;74.30;;;70.20;;
6121;SDS011;3091;51.506;7.672;2024-01-06T07:21:24;74.17;;;70.07;;
6121;SDS011;3091;51.506;7.672;2024-01-06T07:23:50;76.70;;;72.57;;
6121;SDS011;3091;51.506;7.672;2024-01-06T07:26:19;70.83;;;66.83;;
6121;SDS011;3091;51.506;7.672;2024-01-06T07:28:45;74.80;;;70.50;;
6121;SDS011;3091;51.506;7.672;2024-01-06T07:31:11;71.13;;;67.23;;
6121;SDS011;3091;51.506;7.672;2024-01-06T07:33:37;72.60;;;68.57;;
6121;SDS011;3091;51.506;7.672;2024-01-06T07:36:04;68.50;;;64.70;;
6121;SDS011;3091;51.506;7.672;2024-01-06T07:38:30;70.43;;;66.57;;
6121;SDS011;3091;51.506;7.672;2024-01-06T07:40:56;69.87;;;65.97;;
6121;SDS011;3091;51.506;7.672;2024-01-06T07:43:22;67.10;;;63.20;;
6121;SDS011;3091;51.506;7.672;2024-01-06T07:45:48;65.40;;;61.60;;
6121;SDS011;3091;51.506;7.672;2024-01-06T07:48:15;63.60;;;60.00;;
6121;SDS011;3091;51.506;7.672;2024-01-06T07:50:41;63.13;;;59.53;;
6121;SDS011;3091;51.506;7.672;2024-01-06T07:53:08;62.13;;;58.63;;
6121;SDS011;3091;51.506;7.672;2024-01-06T07:55:34;58.50;;;55.10;;
6121;SDS011;3091;51.506;7.672;2024-01-06T07:58:00;62.30;;;58.80;;
6121;SDS011;3091;51.506;7.672;2024-01-06T08:00:27;62.03;;;58.40;;
6121;SDS011;3091;51.506;7.672;2024-01-06T08:02:53;57.70;;;54.30;;
6121;SDS011;3091;51.506;7.672;2024-01-06T08:05:19;58.00;;;54.70;;
6121;SDS011;3091;51.506;7.672;2024-01-06T08:07:45;53.07;;;49.97;;
6121;SDS011;3091;51.506;7.672;2024-01-06T08:10:11;52.30;;;49.30;;
6121;SDS011;3091;51.506;7.672;2024-01-06T08:12:37;52.00;;;49.00;;
6121;SDS011;3091;51.506;7.672;2024-01-06T08:15:03;49.60;;;46.60;;
6121;SDS011;3091;51.506;7.672;2024-01-06T08:17:30;49.97;;;46.87;;
6121;SDS011;3091;51.506;7.672;2024-01-06T08:19:56;44.83;;;42.13;;
6121;SDS011;3091;51.506;7.672;2024-01-06T08:22:22;43.07;;;40.47;;
6121;SDS011;3091;51.506;7.672;2024-01-06T08:24:48;42.77;;;40.17;;
6121;SDS011;3091;51.506;7.672;2024-01-06T08:27:16;51.47;;;48.57;;
6121;SDS011;3091;51.506;7.672;2024-01-06T08:29:42;55.30;;;52.10;;
6121;SDS011;3091;51.506;7.672;2024-01-06T08:32:08;51.17;;;48.40;;
6121;SDS011;3091;51.506;7.672;2024-01-06T08:34:35;51.63;;;48.73;;
6121;SDS011;3091;51.506;7.672;2024-01-06T08:37:01;46.93;;;44.03;;
6121;SDS011;3091;51.506;7.672;2024-01-06T08:39:28;50.70;;;48.03;;
6121;SDS011;3091;51.506;7.672;2024-01-06T08:41:55;51.30;;;48.13;;
6121;SDS011;3091;51.506;7.672;2024-01-06T08:44:21;45.73;;;43.33;;
6121;SDS011;3091;51.506;7.672;2024-01-06T08:46:47;51.60;;;48.80;;
6121;SDS011;3091;51.506;7.672;2024-01-06T08:49:13;50.03;;;47.17;;
6121;SDS011;3091;51.506;7.672;2024-01-06T08:51:39;47.23;;;44.73;;
6121;SDS011;3091;51.506;7.672;2024-01-06T08:54:05;46.97;;;44.47;;
6121;SDS011;3091;51.506;7.672;2024-01-06T08:56:31;43.40;;;41.10;;
6121;SDS011;3091;51.506;7.672;2024-01-06T08:58:57;46.87;;;44.37;;
6121;SDS011;3091;51.506;7.672;2024-01-06T09:01:24;48.33;;;44.73;;
6121;SDS011;3091;51.506;7.672;2024-01-06T09:03:50;45.60;;;42.77;;
6121;SDS011;3091;51.506;7.672;2024-01-06T09:06:16;46.43;;;43.93;;
6121;SDS011;3091;51.506;7.672;2024-01-06T09:08:42;45.23;;;42.63;;
6121;SDS011;3091;51.506;7.672;2024-01-06T09:11:08;46.53;;;43.73;;
6121;SDS011;3091;51.506;7.672;2024-01-06T09:13:34;42.17;;;39.97;;
6121;SDS011;3091;51.506;7.672;2024-01-06T09:16:00;44.93;;;42.10;;
6121;SDS011;3091;51.506;7.672;2024-01-06T09:18:26;43.27;;;40.73;;
6121;SDS011;3091;51.506;7.672;2024-01-06T09:20:53;37.53;;;35.60;;
6121;SDS011;3091;51.506;7.672;2024-01-06T09:23:19;42.13;;;39.37;;
6121;SDS011;3091;51.506;7.672;2024-01-06T09:25:46;39.07;;;37.07;;
6121;SDS011;3091;51.506;7.672;2024-01-06T09:28:17;39.33;;;37.33;;
6121;SDS011;3091;51.506;7.672;2024-01-06T09:30:43;38.17;;;36.17;;
6121;SDS011;3091;51.506;7.672;2024-01-06T09:33:09;37.63;;;35.63;;
6121;SDS011;3091;51.506;7.672;2024-01-06T09:35:35;37.23;;;34.80;;
6121;SDS011;3091;51.506;7.672;2024-01-06T09:38:02;35.83;;;33.93;;
6121;SDS011;3091;51.506;7.672;2024-01-06T09:40:30;37.20;;;34.63;;
6121;SDS011;3091;51.506;7.672;2024-01-06T09:42:57;33.13;;;31.43;;
6121;SDS011;3091;51.506;7.672;2024-01-06T09:45:30;33.47;;;31.67;;
6121;SDS011;3091;51.506;7.672;2024-01-06T09:47:56;31.97;;;30.27;;
6121;SDS011;3091;51.506;7.672;2024-01-06T09:50:23;39.80;;;32.67;;
6121;SDS011;3091;51.506;7.672;2024-01-06T09:52:49;29.67;;;28.07;;
6121;SDS011;3091;51.506;7.672;2024-01-06T09:55:29;31.20;;;29.60;;
6121;SDS011;3091;51.506;7.672;2024-01-06T09:57:55;30.37;;;28.77;;
6121;SDS011;3091;51.506;7.672;2024-01-06T10:00:24;29.57;;;27.97;;
6121;SDS011;3091;51.506;7.672;2024-01-06T10:02:51;33.00;;;31.30;;
6121;SDS011;3091;51.506;7.672;2024-01-06T10:05:17;30.87;;;29.27;;
6121;SDS011;3091;51.506;7.672;2024-01-06T10:07:44;31.87;;;30.17;;
6121;SDS011;3091;51.506;7.672;2024-01-06T10:10:10;29.27;;;27.77;;
6121;SDS011;3091;51.506;7.672;2024-01-06T10:12:40;31.90;;;29.97;;
6121;SDS011;3091;51.506;7.672;2024-01-06T10:15:07;29.80;;;28.20;;
6121;SDS011;3091;51.506;7.672;2024-01-06T10:17:43;30.00;;;28.50;;
6121;SDS011;3091;51.506;7.672;2024-01-06T10:20:10;31.90;;;30.00;;
6121;SDS011;3091;51.506;7.672;2024-01-06T10:22:36;32.27;;;29.10;;
6121;SDS011;3091;51.506;7.672;2024-01-06T10:25:05;29.20;;;27.70;;
6121;SDS011;3091;51.506;7.672;2024-01-06T10:27:33;28.73;;;27.23;;
6121;SDS011;3091;51.506;7.672;2024-01-06T10:30:02;29.50;;;28.00;;
6121;SDS011;3091;51.506;7.672;2024-01-06T10:32:32;31.10;;;29.30;;
6121;SDS011;3091;51.506;7.672;2024-01-06T10:34:59;30.60;;;28.33;;
6121;SDS011;3091;51.506;7.672;2024-01-06T10:37:28;28.90;;;27.40;;
6121;SDS011;3091;51.506;7.672;2024-01-06T10:42:36;28.13;;;26.73;;
6121;SDS011;3091;51.506;7.672;2024-01-06T10:45:05;31.93;;;29.23;;
6121;SDS011;3091;51.506;7.672;2024-01-06T10:47:33;32.03;;;29.30;;
6121;SDS011;3091;51.506;7.672;2024-01-06T10:50:00;28.67;;;27.07;;
6121;SDS011;3091;51.506;7.672;2024-01-06T10:52:27;28.30;;;26.50;;
6121;SDS011;3091;51.506;7.672;2024-01-06T10:54:53;25.47;;;24.27;;
6121;SDS011;3091;51.506;7.672;2024-01-06T10:57:20;28.00;;;26.30;;
6121;SDS011;3091;51.506;7.672;2024-01-06T10:59:47;25.07;;;23.87;;
6121;SDS011;3091;51.506;7.672;2024-01-06T11:02:14;28.53;;;26.50;;
6121;SDS011;3091;51.506;7.672;2024-01-06T11:05:04;24.60;;;23.40;;
6121;SDS011;3091;51.506;7.672;2024-01-06T11:07:35;24.40;;;23.20;;
6121;SDS011;3091;51.506;7.672;2024-01-06T11:10:12;24.90;;;23.70;;
6121;SDS011;3091;51.506;7.672;2024-01-06T11:12:41;24.43;;;23.23;;
6121;SDS011;3091;51.506;7.672;2024-01-06T11:15:07;29.50;;;27.60;;
6121;SDS011;3091;51.506;7.672;2024-01-06T11:20:18;25.33;;;24.10;;
6121;SDS011;3091;51.506;7.672;2024-01-06T11:22:45;28.30;;;26.40;;
6121;SDS011;3091;51.506;7.672;2024-01-06T11:25:15;25.37;;;24.00;;
6121;SDS011;3091;51.506;7.672;2024-01-06T11:27:42;24.20;;;23.00;;
6121;SDS011;3091;51.506;7.672;2024-01-06T11:30:18;26.87;;;25.47;;
6121;SDS011;3091;51.506;7.672;2024-01-06T11:32:45;25.07;;;23.87;;
6121;SDS011;3091;51.506;7.672;2024-01-06T11:35:12;26.00;;;24.70;;
6121;SDS011;3091;51.506;7.672;2024-01-06T11:42:48;27.03;;;25.63;;
6121;SDS011;3091;51.506;7.672;2024-01-06T11:45:14;26.03;;;24.63;;
6121;SDS011;3091;51.506;7.672;2024-01-06T11:47:40;29.77;;;28.07;;
6121;SDS011;3091;51.506;7.672;2024-01-06T11:50:12;32.23;;;30.43;;
6121;SDS011;3091;51.506;7.672;2024-01-06T11:52:38;37.60;;;35.50;;
6121;SDS011;3091;51.506;7.672;2024-01-06T11:55:04;37.57;;;35.47;;
6121;SDS011;3091;51.506;7.672;2024-01-06T11:57:34;42.90;;;40.60;;
6121;SDS011;3091;51.506;7.672;2024-01-06T12:00:00;46.40;;;43.90;;
6121;SDS011;3091;51.506;7.672;2024-01-06T12:02:26;48.00;;;45.40;;
6121;SDS011;3091;51.506;7.672;2024-01-06T12:04:52;50.33;;;47.60;;
6121;SDS011;3091;51.506;7.672;2024-01-06T12:07:19;53.77;;;50.97;;
6121;SDS011;3091;51.506;7.672;2024-01-06T12:09:48;52.10;;;49.20;;
6121;SDS011;3091;51.506;7.672;2024-01-06T12:12:15;56.23;;;53.07;;
6121;SDS011;3091;51.506;7.672;2024-01-06T12:14:41;53.60;;;50.80;;
6121;SDS011;3091;51.506;7.672;2024-01-06T12:17:07;54.43;;;51.53;;
6121;SDS011;3091;51.506;7.672;2024-01-06T12:19:33;55.10;;;52.10;;
6121;SDS011;3091;51.506;7.672;2024-01-06T12:21:59;56.37;;;53.27;;
6121;SDS011;3091;51.506;7.672;2024-01-06T12:24:27;58.20;;;55.10;;
6121;SDS011;3091;51.506;7.672;2024-01-06T12:26:57;54.63;;;51.67;;
6121;SDS011;3091;51.506;7.672;2024-01-06T12:29:26;59.30;;;56.10;;
6121;SDS011;3091;51.506;7.672;2024-01-06T12:31:56;57.33;;;54.30;;
6121;SDS011;3091;51.506;7.672;2024-01-06T12:34:22;54.90;;;51.90;;
6121;SDS011;3091;51.506;7.672;2024-01-06T12:36:48;58.23;;;55.17;;
6121;SDS011;3091;51.506;7.672;2024-01-06T12:39:18;57.20;;;54.20;;
6121;SDS011;3091;51.506;7.672;2024-01-06T12:41:45;59.00;;;55.90;;
6121;SDS011;3091;51.506;7.672;2024-01-06T12:44:11;56.70;;;53.70;;
6121;SDS011;3091;51.506;7.672;2024-01-06T12:46:37;54.87;;;51.97;;
6121;SDS011;3091;51.506;7.672;2024-01-06T12:49:03;54.60;;;51.70;;
6121;SDS011;3091;51.506;7.672;2024-01-06T12:51:29;58.43;;;55.13;;
6121;SDS011;3091;51.506;7.672;2024-01-06T12:53:56;53.70;;;50.90;;
6121;SDS011;3091;51.506;7.672;2024-01-06T12:56:22;52.90;;;49.17;;
6121;SDS011;3091;51.506;7.672;2024-01-06T12:58:48;51.57;;;48.67;;
6121;SDS011;3091;51.506;7.672;2024-01-06T13:01:14;48.60;;;45.47;;
6121;SDS011;3091;51.506;7.672;2024-01-06T13:03:40;46.00;;;43.60;;
6121;SDS011;3091;51.506;7.672;2024-01-06T13:06:06;44.40;;;41.80;;
6121;SDS011;3091;51.506;7.672;2024-01-06T13:08:32;43.57;;;41.03;;
6121;SDS011;3091;51.506;7.672;2024-01-06T13:10:58;43.00;;;40.50;;
6121;SDS011;3091;51.506;7.672;2024-01-06T13:13:24;42.10;;;39.90;;
6121;SDS011;3091;51.506;7.672;2024-01-06T13:15:50;40.73;;;38.63;;
6121;SDS011;3091;51.506;7.672;2024-01-06T13:18:16;42.17;;;39.97;;
6121;SDS011;3091;51.506;7.672;2024-01-06T13:20:42;45.60;;;43.20;;
6121;SDS011;3091;51.506;7.672;2024-01-06T13:23:08;50.47;;;47.87;;
6121;SDS011;3091;51.506;7.672;2024-01-06T13:25:36;54.30;;;51.43;;
6121;SDS011;3091;51.506;7.672;2024-01-06T13:28:04;58.17;;;55.07;;
6121;SDS011;3091;51.506;7.672;2024-01-06T13:30:31;62.27;;;58.77;;
6121;SDS011;3091;51.506;7.672;2024-01-06T13:32:57;65.40;;;62.00;;
6121;SDS011;3091;51.506;7.672;2024-01-06T13:35:23;70.40;;;66.80;;
6121;SDS011;3091;51.506;7.672;2024-01-06T13:37:53;74.60;;;70.90;;
6121;SDS011;3091;51.506;7.672;2024-01-06T13:40:21;76.20;;;71.90;;
6121;SDS011;3091;51.506;7.672;2024-01-06T13:42:50;82.27;;;78.10;;
6121;SDS011;3091;51.506;7.672;2024-01-06T13:45:17;89.70;;;85.00;;
6121;SDS011;3091;51.506;7.672;2024-01-06T13:47:43;91.27;;;86.67;;
6121;SDS011;3091;51.506;7.672;2024-01-06T13:50:11;97.40;;;92.43;;
6121;SDS011;3091;51.506;7.672;2024-01-06T13:52:37;94.70;;;90.10;;
6121;SDS011;3091;51.506;7.672;2024-01-06T13:55:04;102.40;;;97.50;;
6121;SDS011;3091;51.506;7.672;2024-01-06T13:57:30;103.90;;;99.00;;
6121;SDS011;3091;51.506;7.672;2024-01-06T13:59:56;111.57;;;106.47;;
6121;SDS011;3091;51.506;7.672;2024-01-06T14:02:22;115.53;;;110.13;;
6121;SDS011;3091;51.506;7.672;2024-01-06T14:04:48;117.97;;;112.60;;
6121;SDS011;3091;51.506;7.672;2024-01-06T14:07:14;127.80;;;122.10;;
6121;SDS011;3091;51.506;7.672;2024-01-06T14:09:44;126.07;;;120.23;;
6121;SDS011;3091;51.506;7.672;2024-01-06T14:12:10;131.90;;;126.00;;
6121;SDS011;3091;51.506;7.672;2024-01-06T14:14:36;130.43;;;124.57;;
6121;SDS011;3091;51.506;7.672;2024-01-06T14:17:02;131.87;;;125.97;;
6121;SDS011;3091;51.506;7.672;2024-01-06T14:19:28;132.57;;;126.57;;
6121;SDS011;3091;51.506;7.672;2024-01-06T14:21:54;138.13;;;132.03;;
6121;SDS011;3091;51.506;7.672;2024-01-06T14:24:20;138.10;;;131.90;;
6121;SDS011;3091;51.506;7.672;2024-01-06T14:26:50;128.60;;;122.70;;
6121;SDS011;3091;51.506;7.672;2024-01-06T14:29:16;134.33;;;128.30;;
6121;SDS011;3091;51.506;7.672;2024-01-06T14:31:43;126.63;;;120.83;;
6121;SDS011;3091;51.506;7.672;2024-01-06T14:34:09;126.53;;;120.73;;
6121;SDS011;3091;51.506;7.672;2024-01-06T14:36:35;126.73;;;120.90;;
6121;SDS011;3091;51.506;7.672;2024-01-06T14:39:01;127.33;;;121.43;;
6121;SDS011;3091;51.506;7.672;2024-01-06T14:41:29;124.37;;;118.57;;
6121;SDS011;3091;51.506;7.672;2024-01-06T14:43:55;123.33;;;117.53;;
6121;SDS011;3091;51.506;7.672;2024-01-06T14:46:21;122.87;;;117.07;;
6121;SDS011;3091;51.506;7.672;2024-01-06T14:48:47;132.17;;;125.87;;
6121;SDS011;3091;51.506;7.672;2024-01-06T14:51:12;125.70;;;119.80;;